createdAt,value
2018-11-13T00:02:23.871Z,59.15
2018-11-13T00:04:49.877Z,58.83
2018-11-13T00:07:15.907Z,59.49
2018-11-13T00:09:41.990Z,59.35
2018-11-13T00:12:07.934Z,59.48
2018-11-13T00:14:33.887Z,59.42
2018-11-13T00:16:59.884Z,59.25
2018-11-13T00:19:25.868Z,58.81
2018-11-13T00:21:51.846Z,59.29
2018-11-13T00:24:17.828Z,58.75
2018-11-13T00:26:43.797Z,58.99
2018-11-13T00:29:09.768Z,58.88
2018-11-13T00:31:35.728Z,59.26
2018-11-13T00:34:01.696Z,58.70
2018-11-13T00:36:27.651Z,58.75
2018-11-13T00:38:53.595Z,59.30
2018-11-13T00:41:19.555Z,59.03
2018-11-13T00:43:45.500Z,59.04
2018-11-13T00:46:11.491Z,59.17
2018-11-13T00:48:37.445Z,58.78
2018-11-13T00:51:03.436Z,58.12
2018-11-13T00:53:29.376Z,58.43
2018-11-13T00:55:55.344Z,58.67
2018-11-13T00:58:21.298Z,58.80
2018-11-13T01:00:47.329Z,58.86
2018-11-13T01:03:13.224Z,58.71
2018-11-13T01:05:39.179Z,59.23
2018-11-13T01:08:05.118Z,59.22
2018-11-13T01:10:31.093Z,58.86
2018-11-13T01:12:57.041Z,58.58
2018-11-13T01:15:22.988Z,58.79
2018-11-13T01:17:48.952Z,58.50
2018-11-13T01:20:14.902Z,58.79
2018-11-13T01:22:40.864Z,58.61
2018-11-13T01:25:06.944Z,58.43
2018-11-13T01:27:33.102Z,58.95
2018-11-13T01:29:59.058Z,59.44
2018-11-13T01:32:25.000Z,58.45
2018-11-13T01:34:50.975Z,58.97
2018-11-13T01:37:16.940Z,59.43
2018-11-13T01:39:42.900Z,58.84
2018-11-13T01:42:08.856Z,58.91
2018-11-13T01:44:34.880Z,59.01
2018-11-13T01:47:00.813Z,59.10
2018-11-13T01:49:26.870Z,58.92
2018-11-13T01:51:52.811Z,59.06
2018-11-13T01:54:18.847Z,59.13
2018-11-13T01:56:44.749Z,58.95
2018-11-13T01:59:10.708Z,58.85
2018-11-13T02:01:36.651Z,58.88
2018-11-13T02:04:02.641Z,58.71
2018-11-13T02:06:28.591Z,59.23
2018-11-13T02:08:54.548Z,59.28
2018-11-13T02:11:20.527Z,59.10
2018-11-13T02:13:46.616Z,58.62
2018-11-13T02:16:12.587Z,58.70
2018-11-13T02:18:38.538Z,58.91
2018-11-13T02:21:04.512Z,58.01
2018-11-13T02:23:30.453Z,58.55
2018-11-13T02:25:56.515Z,57.97
2018-11-13T02:28:22.532Z,58.21
2018-11-13T02:30:48.511Z,58.28
2018-11-13T02:33:14.563Z,57.85
2018-11-13T02:35:40.656Z,58.06
2018-11-13T02:38:06.517Z,58.59
2018-11-13T02:40:32.474Z,58.44
2018-11-13T02:42:58.463Z,58.70
2018-11-13T02:45:24.527Z,57.66
2018-11-13T02:47:50.485Z,58.39
2018-11-13T02:50:16.428Z,58.44
2018-11-13T02:52:42.383Z,58.46
2018-11-13T02:55:08.335Z,57.99
2018-11-13T02:57:34.283Z,58.01
2018-11-13T03:00:00.341Z,58.33
2018-11-13T03:02:26.282Z,58.03
2018-11-13T03:04:52.252Z,58.71
2018-11-13T03:07:18.198Z,58.92
2018-11-13T03:09:44.160Z,58.23
2018-11-13T03:12:10.105Z,57.80
2018-11-13T03:14:36.045Z,58.78
2018-11-13T03:17:02.001Z,58.16
2018-11-13T03:19:27.971Z,58.56
2018-11-13T03:21:53.955Z,58.63
2018-11-13T03:24:19.895Z,58.05
2018-11-13T03:26:45.848Z,58.16
2018-11-13T03:29:11.791Z,58.30
2018-11-13T03:31:37.900Z,58.88
2018-11-13T03:34:03.744Z,58.78
2018-11-13T03:36:29.684Z,58.32
2018-11-13T03:38:55.652Z,58.35
2018-11-13T03:41:21.604Z,57.70
2018-11-13T03:43:47.559Z,58.08
2018-11-13T03:46:13.511Z,57.59
2018-11-13T03:48:39.463Z,57.65
2018-11-13T03:51:05.431Z,57.88
2018-11-13T03:53:31.383Z,58.40
2018-11-13T03:55:57.407Z,57.96
2018-11-13T03:58:23.384Z,57.97
2018-11-13T04:00:49.337Z,57.67
2018-11-13T04:03:15.313Z,57.94
2018-11-13T04:05:41.280Z,58.12
2018-11-13T04:08:07.245Z,58.52
2018-11-13T04:10:33.228Z,58.26
2018-11-13T04:12:59.187Z,57.68
2018-11-13T04:15:25.162Z,57.74
2018-11-13T04:17:51.104Z,57.72
2018-11-13T04:20:17.079Z,57.90
2018-11-13T04:22:43.043Z,57.51
2018-11-13T04:25:09.063Z,57.36
2018-11-13T04:27:35.017Z,58.01
2018-11-13T04:30:00.973Z,57.66
2018-11-13T04:32:26.934Z,58.31
2018-11-13T04:34:52.884Z,57.42
2018-11-13T04:37:18.837Z,57.98
2018-11-13T04:39:44.803Z,57.42
2018-11-13T04:42:10.747Z,57.83
2018-11-13T04:44:36.704Z,58.19
2018-11-13T04:47:02.677Z,57.62
2018-11-13T04:49:28.625Z,57.40
2018-11-13T04:51:54.583Z,58.02
2018-11-13T04:54:20.639Z,57.61
2018-11-13T04:56:46.579Z,57.58
2018-11-13T04:59:12.548Z,57.91
2018-11-13T05:01:38.610Z,57.30
2018-11-13T05:04:04.596Z,57.10
2018-11-13T05:06:30.549Z,57.62
2018-11-13T05:08:56.517Z,57.14
2018-11-13T05:11:22.460Z,57.76
2018-11-13T05:13:48.418Z,57.60
2018-11-13T05:16:14.424Z,58.09
2018-11-13T05:18:40.388Z,57.18
2018-11-13T05:21:06.314Z,57.74
2018-11-13T05:23:32.418Z,57.58
2018-11-13T05:25:58.386Z,57.15
2018-11-13T05:28:24.377Z,58.09
2018-11-13T05:30:50.420Z,57.05
2018-11-13T05:33:16.368Z,57.34
2018-11-13T05:35:42.319Z,57.94
2018-11-13T05:38:08.279Z,57.40
2018-11-13T05:40:34.236Z,57.74
2018-11-13T05:43:00.180Z,57.40
2018-11-13T05:45:26.191Z,57.19
2018-11-13T05:47:52.204Z,57.18
2018-11-13T05:50:18.161Z,57.72
2018-11-13T05:52:44.107Z,57.20
2018-11-13T05:55:10.064Z,56.99
2018-11-13T05:57:36.013Z,56.87
2018-11-13T06:00:01.971Z,57.23
2018-11-13T06:02:27.912Z,57.76
2018-11-13T06:04:53.869Z,57.75
2018-11-13T06:07:19.816Z,57.26
2018-11-13T06:09:45.771Z,57.34
2018-11-13T06:12:11.746Z,57.03
2018-11-13T06:14:37.689Z,57.61
2018-11-13T06:17:03.639Z,56.67
2018-11-13T06:19:29.601Z,57.45
2018-11-13T06:21:55.560Z,56.55
2018-11-13T06:24:21.534Z,56.99
2018-11-13T06:26:47.473Z,56.92
2018-11-13T06:29:13.471Z,56.97
2018-11-13T06:31:39.417Z,56.24
2018-11-13T06:34:05.640Z,57.20
2018-11-13T06:36:31.599Z,56.79
2018-11-13T06:38:57.610Z,56.03
2018-11-13T06:41:23.541Z,57.15
2018-11-13T06:43:49.494Z,56.65
2018-11-13T06:46:15.473Z,56.57
2018-11-13T06:48:41.404Z,56.07
2018-11-13T06:51:07.421Z,56.80
2018-11-13T06:53:33.363Z,56.99
2018-11-13T06:55:59.314Z,56.80
2018-11-13T06:58:25.261Z,56.35
2018-11-13T07:00:51.221Z,56.40
2018-11-13T07:03:17.173Z,56.36
2018-11-13T07:05:43.135Z,57.24
2018-11-13T07:08:09.084Z,57.05
2018-11-13T07:10:35.065Z,56.69
2018-11-13T07:13:00.986Z,56.30
2018-11-13T07:15:26.938Z,56.63
2018-11-13T07:17:52.887Z,57.19
2018-11-13T07:20:18.836Z,56.10
2018-11-13T07:22:44.793Z,56.86
2018-11-13T07:25:10.805Z,56.53
2018-11-13T07:27:36.843Z,57.17
2018-11-13T07:30:02.735Z,56.57
2018-11-13T07:32:28.703Z,57.24
2018-11-13T07:34:55.048Z,56.58
2018-11-13T07:37:21.004Z,56.29
2018-11-13T07:39:46.969Z,56.88
2018-11-13T07:42:12.916Z,56.49
2018-11-13T07:44:38.929Z,56.32
2018-11-13T07:47:04.918Z,56.84
2018-11-13T07:49:30.885Z,57.18
2018-11-13T07:51:56.838Z,56.28
2018-11-13T07:54:22.804Z,56.94
2018-11-13T07:56:48.746Z,56.67
2018-11-13T07:59:14.727Z,56.25
2018-11-13T08:01:40.698Z,57.27
2018-11-13T08:04:06.644Z,56.62
2018-11-13T08:06:32.602Z,56.89
2018-11-13T08:08:58.548Z,56.40
2018-11-13T08:11:24.526Z,57.39
2018-11-13T08:13:50.576Z,56.81
2018-11-13T08:16:16.603Z,57.21
2018-11-13T08:18:42.628Z,56.89
2018-11-13T08:21:08.695Z,56.89
2018-11-13T08:23:34.706Z,56.68
2018-11-13T08:26:00.640Z,57.36
2018-11-13T08:28:26.665Z,56.40
2018-11-13T08:30:52.672Z,56.71
2018-11-13T08:33:18.715Z,56.41
2018-11-13T08:35:44.805Z,56.90
2018-11-13T08:38:10.756Z,56.68
2018-11-13T08:40:36.709Z,56.44
2018-11-13T08:43:02.665Z,56.90
2018-11-13T08:45:28.612Z,56.85
2018-11-13T08:47:54.569Z,57.00
2018-11-13T08:50:20.596Z,57.38
2018-11-13T08:52:46.521Z,56.70
2018-11-13T08:55:12.460Z,57.12
2018-11-13T08:57:38.416Z,56.73
2018-11-13T09:00:04.381Z,57.76
2018-11-13T09:02:30.333Z,56.71
2018-11-13T09:04:56.363Z,57.16
2018-11-13T09:07:22.321Z,57.04
2018-11-13T09:09:48.268Z,57.39
2018-11-13T09:12:14.265Z,57.17
2018-11-13T09:14:40.256Z,56.75
2018-11-13T09:17:06.211Z,57.73
2018-11-13T09:19:32.320Z,56.81
2018-11-13T09:21:58.181Z,56.84
2018-11-13T09:24:24.143Z,57.76
2018-11-13T09:26:50.109Z,57.40
2018-11-13T09:29:16.068Z,57.76
2018-11-13T09:31:42.185Z,57.12
2018-11-13T09:34:07.995Z,57.50
2018-11-13T09:36:33.946Z,57.13
2018-11-13T09:38:59.927Z,57.25
2018-11-13T09:41:25.891Z,57.40
2018-11-13T09:43:51.875Z,57.39
2018-11-13T09:46:17.830Z,56.52
2018-11-13T09:48:43.854Z,57.37
2018-11-13T09:51:09.758Z,57.09
2018-11-13T09:53:35.774Z,57.02
2018-11-13T09:56:01.696Z,56.58
2018-11-13T09:58:27.726Z,57.23
2018-11-13T10:00:53.957Z,56.25
2018-11-13T10:03:20.154Z,57.09
2018-11-13T10:05:45.682Z,56.62
2018-11-13T10:08:11.551Z,56.19
2018-11-13T10:10:37.543Z,56.47
2018-11-13T10:13:03.538Z,56.80
2018-11-13T10:15:29.494Z,56.84
2018-11-13T10:17:55.564Z,56.89
2018-11-13T10:20:21.413Z,56.39
2018-11-13T10:22:47.382Z,55.99
2018-11-13T10:25:13.391Z,55.71
2018-11-13T10:27:39.399Z,56.21
2018-11-13T10:30:05.300Z,56.13
2018-11-13T10:32:31.276Z,55.60
2018-11-13T10:34:57.213Z,56.07
2018-11-13T10:37:23.175Z,56.29
2018-11-13T10:39:49.133Z,55.53
2018-11-13T10:42:15.123Z,56.47
2018-11-13T10:44:42.114Z,55.58
2018-11-13T10:47:08.081Z,55.95
2018-11-13T10:49:34.060Z,56.25
2018-11-13T10:52:00.005Z,55.90
2018-11-13T10:54:25.969Z,55.53
2018-11-13T10:56:51.936Z,56.04
2018-11-13T10:59:17.913Z,55.49
2018-11-13T11:01:43.855Z,55.50
2018-11-13T11:04:09.849Z,55.30
2018-11-13T11:06:35.797Z,55.41
2018-11-13T11:09:01.810Z,54.49
2018-11-13T11:11:27.850Z,55.58
2018-11-13T11:13:53.899Z,54.83
2018-11-13T11:16:19.708Z,55.09
2018-11-13T11:18:45.718Z,55.48
2018-11-13T11:21:11.615Z,55.18
2018-11-13T11:23:37.689Z,55.02
2018-11-13T11:26:03.552Z,54.93
2018-11-13T11:28:29.502Z,55.65
2018-11-13T11:30:55.549Z,55.54
2018-11-13T11:33:21.554Z,55.36
2018-11-13T11:35:47.515Z,55.01
2018-11-13T11:38:13.467Z,54.82
2018-11-13T11:40:39.419Z,54.78
2018-11-13T11:43:05.365Z,54.61
2018-11-13T11:45:31.281Z,54.45
2018-11-13T11:47:57.302Z,54.54
2018-11-13T11:50:23.260Z,54.90
2018-11-13T11:52:49.201Z,54.10
2018-11-13T11:55:15.153Z,53.59
2018-11-13T11:57:41.124Z,54.34
2018-11-13T12:00:07.070Z,53.97
2018-11-13T12:02:33.039Z,54.18
2018-11-13T12:04:59.034Z,54.18
2018-11-13T12:07:25.006Z,54.43
2018-11-13T12:09:50.952Z,54.22
2018-11-13T12:12:17.029Z,54.42
2018-11-13T12:14:42.905Z,53.90
2018-11-13T12:17:08.868Z,53.34
2018-11-13T12:19:34.851Z,54.12
2018-11-13T12:22:00.831Z,54.35
2018-11-13T12:24:26.783Z,53.64
2018-11-13T12:26:52.780Z,54.47
2018-11-13T12:29:18.817Z,54.63
2018-11-13T12:31:44.849Z,53.81
2018-11-13T12:34:10.807Z,53.41
2018-11-13T12:36:36.766Z,54.34
2018-11-13T12:39:02.724Z,54.23
2018-11-13T12:41:28.675Z,54.55
2018-11-13T12:43:54.635Z,54.55
2018-11-13T12:46:20.632Z,53.96
2018-11-13T12:48:46.552Z,54.32
2018-11-13T12:51:12.502Z,54.53
2018-11-13T12:53:38.452Z,54.32
2018-11-13T12:56:04.446Z,54.58
2018-11-13T12:58:30.372Z,54.60
2018-11-13T13:00:56.285Z,55.06
2018-11-13T13:03:22.246Z,54.61
2018-11-13T13:05:48.473Z,54.48
2018-11-13T13:08:14.412Z,55.00
2018-11-13T13:10:40.380Z,54.76
2018-11-13T13:13:06.332Z,54.09
2018-11-13T13:15:32.356Z,54.44
2018-11-13T13:17:58.308Z,54.48
2018-11-13T13:20:24.314Z,54.65
2018-11-13T13:22:50.246Z,54.64
2018-11-13T13:25:16.195Z,54.60
2018-11-13T13:27:42.192Z,54.16
2018-11-13T13:30:08.140Z,55.04
2018-11-13T13:32:34.091Z,54.48
2018-11-13T13:35:00.041Z,54.45
2018-11-13T13:37:26.087Z,54.51
2018-11-13T13:39:52.049Z,54.95
2018-11-13T13:42:18.020Z,54.44
2018-11-13T13:44:43.972Z,54.58
2018-11-13T13:47:09.940Z,54.04
2018-11-13T13:49:35.936Z,54.07
2018-11-13T13:52:01.901Z,54.60
2018-11-13T13:54:27.912Z,54.93
2018-11-13T13:56:53.837Z,54.65
2018-11-13T13:59:19.851Z,54.66
2018-11-13T14:01:45.751Z,54.86
2018-11-13T14:04:11.713Z,54.24
2018-11-13T14:06:38.186Z,54.22
2018-11-13T14:09:04.138Z,54.39
2018-11-13T14:11:30.123Z,54.32
2018-11-13T14:13:56.083Z,55.25
2018-11-13T14:16:22.036Z,55.04
2018-11-13T14:18:48.003Z,56.09
2018-11-13T14:21:13.941Z,55.46
2018-11-13T14:23:40.099Z,55.49
2018-11-13T14:26:06.127Z,54.67
2018-11-13T14:28:32.070Z,54.82
2018-11-13T14:30:58.029Z,54.78
2018-11-13T14:33:23.982Z,55.13
2018-11-13T14:35:49.964Z,54.76
2018-11-13T14:38:15.900Z,55.03
2018-11-13T14:40:41.984Z,54.56
2018-11-13T14:43:07.962Z,54.71
2018-11-13T14:45:33.916Z,54.55
2018-11-13T14:47:59.927Z,54.66
2018-11-13T14:50:25.893Z,54.05
2018-11-13T14:52:51.859Z,53.86
2018-11-13T14:55:17.876Z,54.11
2018-11-13T14:57:43.840Z,54.64
2018-11-13T15:00:09.816Z,54.81
2018-11-13T15:02:35.757Z,53.99
2018-11-13T15:05:01.747Z,54.12
2018-11-13T15:07:27.687Z,54.39
2018-11-13T15:09:53.805Z,53.59
2018-11-13T15:12:19.842Z,54.26
2018-11-13T15:14:45.790Z,54.58
2018-11-13T15:17:11.734Z,54.01
2018-11-13T15:19:37.798Z,53.98
2018-11-13T15:22:03.817Z,53.81
2018-11-13T15:24:29.846Z,54.26
2018-11-13T15:26:55.718Z,54.61
2018-11-13T15:29:21.682Z,53.80
2018-11-13T15:31:47.701Z,54.35
2018-11-13T15:34:13.682Z,54.03
2018-11-13T15:36:39.687Z,55.01
2018-11-13T15:39:05.606Z,54.53
2018-11-13T15:41:31.568Z,54.31
2018-11-13T15:43:57.544Z,54.42
2018-11-13T15:46:23.509Z,54.27
2018-11-13T15:48:49.560Z,54.27
2018-11-13T15:51:15.561Z,54.89
2018-11-13T15:53:41.584Z,54.04
2018-11-13T15:56:07.545Z,54.40
2018-11-13T15:58:33.534Z,54.33
2018-11-13T16:00:59.488Z,54.35
2018-11-13T16:03:25.463Z,54.41
2018-11-13T16:05:51.524Z,54.27
2018-11-13T16:08:17.479Z,53.95
2018-11-13T16:10:43.434Z,54.19
2018-11-13T16:13:09.406Z,54.37
2018-11-13T16:15:35.350Z,55.00
2018-11-13T16:18:01.291Z,54.38
2018-11-13T16:20:27.255Z,54.44
2018-11-13T16:22:53.215Z,54.46
2018-11-13T16:25:19.175Z,54.88
2018-11-13T16:27:45.118Z,54.42
2018-11-13T16:30:11.118Z,54.63
2018-11-13T16:32:37.084Z,54.51
2018-11-13T16:35:03.074Z,53.96
2018-11-13T16:37:29.092Z,54.85
2018-11-13T16:39:55.077Z,53.90
2018-11-13T16:42:21.034Z,54.02
2018-11-13T16:44:47.010Z,53.79
2018-11-13T16:47:12.972Z,54.38
2018-11-13T16:49:38.922Z,53.84
2018-11-13T16:52:04.892Z,54.50
2018-11-13T16:54:30.849Z,53.93
2018-11-13T16:56:56.858Z,54.69
2018-11-13T16:59:22.835Z,53.88
2018-11-13T17:01:48.861Z,54.33
2018-11-13T17:04:14.824Z,54.87
2018-11-13T17:06:40.880Z,54.14
2018-11-13T17:09:06.824Z,54.50
2018-11-13T17:11:32.798Z,54.71
2018-11-13T17:13:58.709Z,54.75
2018-11-13T17:16:24.801Z,53.76
2018-11-13T17:18:50.640Z,54.04
2018-11-13T17:21:16.612Z,53.84
2018-11-13T17:23:42.639Z,54.16
2018-11-13T17:26:08.591Z,54.52
2018-11-13T17:28:34.579Z,54.24
2018-11-13T17:31:00.541Z,54.12
2018-11-13T17:33:26.510Z,54.09
2018-11-13T17:35:52.444Z,54.67
2018-11-13T17:38:18.480Z,54.13
2018-11-13T17:40:44.431Z,53.81
2018-11-13T17:43:10.422Z,54.11
2018-11-13T17:45:36.382Z,54.26
2018-11-13T17:48:02.460Z,54.12
2018-11-13T17:50:28.431Z,53.94
2018-11-13T17:52:54.462Z,54.42
2018-11-13T17:55:20.420Z,53.79
2018-11-13T17:57:46.389Z,54.37
2018-11-13T18:00:12.429Z,54.70
2018-11-13T18:02:38.383Z,54.17
2018-11-13T18:05:04.403Z,54.46
2018-11-13T18:07:30.458Z,53.75
2018-11-13T18:09:56.347Z,54.93
2018-11-13T18:12:22.335Z,54.43
2018-11-13T18:14:48.372Z,54.27
2018-11-13T18:17:14.340Z,54.50
2018-11-13T18:19:40.320Z,53.96
2018-11-13T18:22:06.503Z,54.36
2018-11-13T18:24:32.424Z,54.21
2018-11-13T18:26:58.404Z,54.12
2018-11-13T18:29:24.432Z,54.67
2018-11-13T18:31:50.421Z,54.21
2018-11-13T18:34:16.383Z,54.21
2018-11-13T18:36:42.626Z,54.85
2018-11-13T18:39:09.154Z,54.15
2018-11-13T18:41:35.010Z,54.37
2018-11-13T18:44:01.286Z,54.38
2018-11-13T18:46:27.518Z,53.96
2018-11-13T18:48:53.856Z,54.30
2018-11-13T18:51:19.895Z,54.29
2018-11-13T18:53:46.220Z,54.39
2018-11-13T18:56:12.213Z,53.94
2018-11-13T18:58:38.639Z,54.09
2018-11-13T19:01:05.028Z,53.64
2018-11-13T19:03:31.061Z,53.32
2018-11-13T19:05:57.063Z,53.83
2018-11-13T19:08:23.315Z,53.90
2018-11-13T19:10:49.676Z,54.26
2018-11-13T19:13:16.101Z,53.81
2018-11-13T19:15:42.144Z,54.13
2018-11-13T19:18:08.124Z,54.34
2018-11-13T19:20:34.123Z,53.85
2018-11-13T19:23:00.095Z,53.89
2018-11-13T19:25:26.071Z,54.13
2018-11-13T19:27:52.030Z,53.80
2018-11-13T19:30:18.116Z,53.95
2018-11-13T19:32:43.979Z,53.66
2018-11-13T19:35:09.967Z,53.94
2018-11-13T19:37:35.916Z,54.17
2018-11-13T19:40:02.111Z,53.70
2018-11-13T19:42:27.902Z,53.67
2018-11-13T19:44:53.883Z,53.85
2018-11-13T19:47:19.841Z,54.58
2018-11-13T19:49:45.890Z,54.51
2018-11-13T19:52:11.805Z,53.80
2018-11-13T19:54:37.823Z,54.21
2018-11-13T19:57:03.725Z,54.34
2018-11-13T19:59:29.696Z,53.69
2018-11-13T20:01:55.648Z,53.62
2018-11-13T20:04:21.699Z,54.18
2018-11-13T20:06:47.585Z,54.14
2018-11-13T20:09:13.620Z,53.40
2018-11-13T20:11:39.596Z,53.64
2018-11-13T20:14:05.573Z,54.30
2018-11-13T20:16:31.548Z,54.06
2018-11-13T20:18:57.512Z,53.96
2018-11-13T20:21:23.476Z,53.29
2018-11-13T20:23:49.430Z,53.37
2018-11-13T20:26:15.383Z,54.26
2018-11-13T20:28:41.364Z,54.10
2018-11-13T20:31:07.382Z,54.30
2018-11-13T20:33:33.906Z,53.93
2018-11-13T20:36:00.059Z,53.93
2018-11-13T20:38:26.392Z,53.47
2018-11-13T20:40:52.411Z,53.81
2018-11-13T20:43:18.475Z,53.71
2018-11-13T20:45:44.787Z,54.12
2018-11-13T20:48:11.949Z,54.37
2018-11-13T20:50:37.896Z,54.13
2018-11-13T20:53:03.992Z,53.87
2018-11-13T20:55:29.948Z,54.04
2018-11-13T20:57:55.932Z,53.88
2018-11-13T21:00:21.914Z,53.51
2018-11-13T21:02:48.053Z,54.16
2018-11-13T21:05:13.985Z,54.42
2018-11-13T21:07:40.024Z,54.10
2018-11-13T21:10:07.024Z,54.40
2018-11-13T21:12:32.996Z,53.77
2018-11-13T21:14:58.955Z,53.90
2018-11-13T21:17:25.124Z,53.83
2018-11-13T21:19:51.033Z,53.98
2018-11-13T21:22:16.858Z,53.26
2018-11-13T21:24:43.190Z,53.95
2018-11-13T21:27:08.892Z,53.35
2018-11-13T21:29:35.796Z,54.28
2018-11-13T21:32:01.763Z,53.16
2018-11-13T21:34:27.727Z,53.66
2018-11-13T21:36:53.764Z,53.79
2018-11-13T21:39:19.707Z,53.54
2018-11-13T21:41:45.670Z,53.21
2018-11-13T21:44:11.719Z,54.26
2018-11-13T21:46:37.752Z,53.49
2018-11-13T21:49:03.719Z,54.17
2018-11-13T21:51:29.676Z,54.22
2018-11-13T21:53:55.629Z,53.76
2018-11-13T21:56:21.591Z,53.84
2018-11-13T21:58:47.584Z,54.26
2018-11-13T22:01:13.560Z,53.20
2018-11-13T22:03:39.602Z,53.88
2018-11-13T22:06:05.637Z,53.74
2018-11-13T22:08:31.751Z,53.51
2018-11-13T22:10:57.738Z,53.88
2018-11-13T22:13:23.912Z,53.41
2018-11-13T22:15:49.655Z,53.09
2018-11-13T22:18:15.736Z,53.58
2018-11-13T22:20:43.620Z,53.13
2018-11-13T22:23:07.643Z,53.65
2018-11-13T22:25:33.615Z,53.98
2018-11-13T22:27:59.681Z,53.45
2018-11-13T22:30:25.563Z,53.50
2018-11-13T22:32:51.594Z,53.00
2018-11-13T22:35:17.620Z,53.48
2018-11-13T22:37:43.588Z,53.26
2018-11-13T22:40:09.553Z,53.80
2018-11-13T22:42:35.513Z,53.18
2018-11-13T22:45:01.476Z,53.38
2018-11-13T22:47:27.453Z,52.86
2018-11-13T22:49:53.408Z,52.80
2018-11-13T22:52:19.410Z,53.32
2018-11-13T22:54:45.395Z,52.74
2018-11-13T22:57:11.354Z,53.22
2018-11-13T22:59:37.422Z,53.75
2018-11-13T23:02:03.421Z,53.33
2018-11-13T23:04:29.444Z,53.05
2018-11-13T23:06:55.405Z,53.51
2018-11-13T23:09:21.350Z,53.65
2018-11-13T23:11:47.309Z,53.75
2018-11-13T23:14:13.275Z,53.27
2018-11-13T23:16:39.308Z,53.94
2018-11-13T23:19:05.243Z,53.66
2018-11-13T23:21:31.201Z,53.06
2018-11-13T23:23:57.176Z,53.27
2018-11-13T23:26:23.122Z,52.87
2018-11-13T23:28:49.070Z,53.23
2018-11-13T23:31:15.072Z,53.38
2018-11-13T23:33:41.084Z,53.10
2018-11-13T23:36:07.145Z,53.73
2018-11-13T23:38:33.213Z,52.76
2018-11-13T23:40:59.170Z,53.42
2018-11-13T23:43:25.147Z,53.49
2018-11-13T23:45:51.121Z,53.17
2018-11-13T23:48:17.108Z,52.88
2018-11-13T23:50:43.052Z,53.48
2018-11-13T23:53:09.037Z,52.83
2018-11-13T23:55:35.027Z,52.75
2018-11-13T23:58:00.958Z,53.23
